Time;durP1;ratioP1;P1;durP2;ratioP2;P2;SDS_P1;SDS_P2;PMS_P1;PMS_P2;Temp;Humidity;BMP_temperature;BMP_pressure;BME280_temperature;BME280_humidity;BME280_pressure;Samples;Min_cycle;Max_cycle;Signal;HPM_P1;HPM_P2
2021/11/20 00:01:18;;;;;;;23.45;18.35;;;10.30;99.90;;;;;;5033957;28;20072;-61
2021/11/20 00:03:45;;;;;;;23.52;18.20;;;10.20;99.90;;;;;;5034418;28;20037;-60
2021/11/20 00:06:19;;;;;;;27.65;19.15;;;10.30;99.90;;;;;;5033998;28;20124;-59
2021/11/20 00:08:44;;;;;;;24.88;18.50;;;10.30;99.90;;;;;;5034007;28;20040;-60
2021/11/20 00:11:13;;;;;;;26.10;18.73;;;10.30;99.90;;;;;;5033277;28;20038;-59
2021/11/20 00:13:41;;;;;;;26.20;18.15;;;10.40;99.90;;;;;;5033449;28;20118;-59
2021/11/20 00:16:07;;;;;;;25.77;19.08;;;10.30;99.90;;;;;;5033464;28;20040;-61
2021/11/20 00:18:33;;;;;;;28.70;19.98;;;10.40;99.90;;;;;;5033477;28;20112;-60
2021/11/20 00:21:03;;;;;;;24.55;18.52;;;10.40;99.90;;;;;;5036155;28;20038;-61
2021/11/20 00:23:34;;;;;;;28.05;19.63;;;10.40;99.90;;;;;;5053475;28;20028;-60
2021/11/20 00:26:02;;;;;;;25.20;18.20;;;10.30;99.90;;;;;;5054061;28;20044;-59
2021/11/20 00:28:43;;;;;;;23.60;17.90;;;10.30;99.90;;;;;;5043614;28;20504;-61
2021/11/20 00:31:15;;;;;;;24.83;18.48;;;10.30;99.90;;;;;;5041596;28;20091;-60
2021/11/20 00:33:42;;;;;;;25.10;18.35;;;10.30;99.90;;;;;;5044005;28;20040;-60
2021/11/20 00:36:09;;;;;;;25.10;19.23;;;10.30;99.90;;;;;;5040186;28;20025;-59
2021/11/20 00:38:35;;;;;;;24.75;18.27;;;10.30;99.90;;;;;;5043393;28;20028;-61
2021/11/20 00:41:11;;;;;;;26.73;18.63;;;10.30;99.90;;;;;;5042368;28;20025;-61
2021/11/20 00:43:39;;;;;;;33.05;18.98;;;10.40;99.90;;;;;;5042307;28;20067;-60
2021/11/20 00:46:06;;;;;;;29.02;18.65;;;10.40;99.90;;;;;;5045544;28;20073;-61
2021/11/20 00:48:32;;;;;;;27.50;19.35;;;10.40;99.90;;;;;;5062763;28;20078;-61
2021/11/20 00:51:02;;;;;;;24.75;17.92;;;10.40;99.90;;;;;;5041563;28;20033;-61
2021/11/20 00:53:29;;;;;;;25.08;18.38;;;10.30;99.90;;;;;;5042331;28;20037;-61
2021/11/20 00:55:55;;;;;;;26.33;18.98;;;10.30;99.90;;;;;;5041799;28;20059;-60
2021/11/20 00:58:22;;;;;;;27.20;19.23;;;10.30;99.90;;;;;;5048117;28;20029;-59
2021/11/20 01:00:52;;;;;;;25.10;19.08;;;10.30;99.90;;;;;;5049871;28;20037;-61
2021/11/20 01:03:19;;;;;;;27.27;20.08;;;10.40;99.90;;;;;;5048630;28;20029;-61
2021/11/20 01:05:45;;;;;;;27.58;19.55;;;10.40;99.90;;;;;;5041058;28;20087;-61
2021/11/20 01:08:14;;;;;;;27.05;20.00;;;10.40;99.90;;;;;;5044739;28;20037;-60
2021/11/20 01:10:47;;;;;;;26.35;18.83;;;10.50;99.90;;;;;;5042650;28;20528;-61
2021/11/20 01:13:14;;;;;;;25.90;18.52;;;10.50;99.90;;;;;;5036160;28;20075;-60
2021/11/20 01:15:50;;;;;;;30.60;21.42;;;10.50;99.90;;;;;;5035674;28;20029;-57
2021/11/20 01:18:20;;;;;;;27.98;19.70;;;10.50;99.90;;;;;;5040280;28;20031;-60
2021/11/20 01:20:47;;;;;;;29.30;21.20;;;10.50;99.90;;;;;;5041527;28;20037;-59
2021/11/20 01:23:15;;;;;;;27.58;21.25;;;10.60;99.90;;;;;;5043116;28;20443;-61
2021/11/20 01:25:41;;;;;;;30.40;21.42;;;10.60;99.90;;;;;;5041003;28;20021;-56
2021/11/20 01:28:08;;;;;;;31.58;21.70;;;10.60;99.90;;;;;;5041581;28;20109;-61
2021/11/20 01:30:34;;;;;;;33.55;22.25;;;10.60;99.90;;;;;;5038856;28;20115;-60
2021/11/20 01:33:00;;;;;;;29.38;21.45;;;10.50;99.90;;;;;;5042447;28;20037;-59
2021/11/20 01:35:26;;;;;;;33.08;21.95;;;10.60;99.90;;;;;;5034103;28;20090;-61
2021/11/20 01:37:51;;;;;;;28.83;22.17;;;10.70;99.90;;;;;;5049139;28;20022;-58
2021/11/20 01:40:20;;;;;;;29.08;22.02;;;10.70;99.90;;;;;;5042934;28;20053;-59
2021/11/20 01:42:46;;;;;;;30.73;22.77;;;10.70;99.90;;;;;;5046405;28;20128;-61
2021/11/20 01:45:17;;;;;;;29.42;22.10;;;10.70;99.90;;;;;;5043168;28;20033;-61
2021/11/20 01:47:54;;;;;;;32.17;24.25;;;10.70;99.90;;;;;;5043467;28;20112;-61
2021/11/20 01:50:28;;;;;;;30.55;23.20;;;10.70;99.90;;;;;;5047570;28;20051;-58
2021/11/20 01:53:06;;;;;;;30.88;22.35;;;10.60;99.90;;;;;;5049685;28;20048;-56
2021/11/20 01:55:37;;;;;;;27.00;21.27;;;10.70;99.90;;;;;;5055689;28;20083;-58
2021/11/20 01:58:07;;;;;;;30.63;23.00;;;10.70;99.90;;;;;;5050392;28;20032;-60
2021/11/20 02:00:46;;;;;;;29.65;22.60;;;10.70;99.90;;;;;;5044756;28;20646;-62
2021/11/20 02:03:14;;;;;;;32.70;23.33;;;10.70;99.90;;;;;;5045370;28;20045;-61
2021/11/20 02:05:56;;;;;;;33.88;23.13;;;10.70;99.90;;;;;;5048451;28;20033;-60
2021/11/20 02:08:49;;;;;;;33.08;22.77;;;10.90;99.90;;;;;;5046539;28;20028;-60
2021/11/20 02:11:27;;;;;;;32.90;21.38;;;10.80;99.90;;;;;;5046297;28;20033;-58
2021/11/20 02:13:53;;;;;;;33.10;22.85;;;10.80;99.90;;;;;;5045513;28;20061;-60
2021/11/20 02:16:27;;;;;;;32.15;22.38;;;10.80;99.90;;;;;;5044360;28;20038;-60
2021/11/20 02:18:57;;;;;;;32.40;23.73;;;10.80;99.90;;;;;;5044908;28;20602;-60
2021/11/20 02:21:33;;;;;;;27.77;22.40;;;10.80;99.90;;;;;;5048191;28;20036;-61
2021/11/20 02:23:59;;;;;;;33.17;22.95;;;10.80;99.90;;;;;;5054118;28;20071;-59
2021/11/20 02:26:24;;;;;;;32.42;22.77;;;10.70;99.90;;;;;;5056337;28;20068;-60
2021/11/20 02:28:53;;;;;;;28.83;21.63;;;10.60;99.90;;;;;;5056323;28;20072;-61
2021/11/20 02:31:19;;;;;;;28.40;22.50;;;10.70;99.90;;;;;;5055913;28;20037;-61
2021/11/20 02:33:49;;;;;;;32.00;21.88;;;10.70;99.90;;;;;;5055688;28;20106;-60
2021/11/20 02:36:18;;;;;;;27.20;22.00;;;10.70;99.90;;;;;;5056283;28;20024;-60
2021/11/20 02:38:50;;;;;;;29.65;22.05;;;10.70;99.90;;;;;;5055983;28;20067;-62
2021/11/20 02:41:19;;;;;;;30.02;21.85;;;10.70;99.90;;;;;;5055795;28;20030;-60
2021/11/20 02:43:51;;;;;;;29.75;22.00;;;10.70;99.90;;;;;;5053678;28;20083;-61
2021/11/20 02:46:21;;;;;;;27.13;21.48;;;10.70;99.90;;;;;;5054315;28;20039;-60
2021/11/20 02:48:47;;;;;;;35.95;21.77;;;10.70;99.90;;;;;;5072352;28;20033;-60
2021/11/20 02:51:17;;;;;;;32.38;22.00;;;10.70;99.90;;;;;;5074133;28;20384;-60
2021/11/20 02:53:46;;;;;;;28.48;22.42;;;10.70;99.90;;;;;;5074923;28;20035;-60
2021/11/20 02:56:16;;;;;;;32.75;22.98;;;10.70;99.90;;;;;;5075894;28;20032;-57
2021/11/20 02:58:42;;;;;;;29.83;22.25;;;10.70;99.90;;;;;;5073867;28;20108;-60
2021/11/20 03:01:15;;;;;;;31.95;21.50;;;10.80;99.90;;;;;;5074283;28;20104;-60
2021/11/20 03:03:44;;;;;;;30.85;22.67;;;10.80;99.90;;;;;;5073382;28;20381;-60
2021/11/20 03:06:10;;;;;;;29.23;21.80;;;10.80;99.90;;;;;;5075202;28;20029;-60
2021/11/20 03:08:36;;;;;;;33.85;23.15;;;10.70;99.90;;;;;;5075303;28;20025;-61
2021/11/20 03:11:03;;;;;;;31.45;21.73;;;10.70;99.90;;;;;;5075629;28;20480;-60
2021/11/20 03:13:29;;;;;;;30.83;23.10;;;10.80;99.90;;;;;;5075715;28;20036;-60
2021/11/20 03:15:54;;;;;;;31.50;23.77;;;10.80;99.90;;;;;;5075374;28;20033;-60
2021/11/20 03:18:20;;;;;;;33.53;23.42;;;10.80;99.90;;;;;;5075501;28;20039;-61
2021/11/20 03:20:46;;;;;;;33.05;23.67;;;10.70;99.90;;;;;;5073837;28;20028;-60
2021/11/20 03:23:28;;;;;;;31.88;24.00;;;10.60;99.90;;;;;;5053891;28;20041;-60
2021/11/20 03:25:53;;;;;;;31.67;23.40;;;10.60;99.90;;;;;;5054393;28;20435;-60
2021/11/20 03:28:19;;;;;;;33.45;22.75;;;10.70;99.90;;;;;;5054640;28;20049;-61
2021/11/20 03:30:45;;;;;;;31.98;23.52;;;10.80;99.90;;;;;;5054508;28;20033;-61
2021/11/20 03:33:11;;;;;;;32.58;23.70;;;10.90;99.90;;;;;;5053927;28;20040;-59
2021/11/20 03:35:37;;;;;;;33.65;24.23;;;10.90;99.90;;;;;;5054917;28;20440;-62
2021/11/20 03:38:03;;;;;;;29.55;23.92;;;10.90;99.90;;;;;;5055146;28;20044;-61
2021/11/20 03:40:29;;;;;;;32.00;24.25;;;10.90;99.90;;;;;;5054953;28;20055;-61
2021/11/20 03:42:55;;;;;;;32.10;23.52;;;10.90;99.90;;;;;;5055025;28;20112;-60
2021/11/20 03:45:23;;;;;;;27.85;22.33;;;10.90;99.90;;;;;;5055078;28;20433;-61
2021/11/20 03:47:49;;;;;;;29.40;23.05;;;10.90;99.90;;;;;;5063265;28;20029;-60
2021/11/20 03:50:16;;;;;;;33.15;23.58;;;10.90;99.90;;;;;;5074063;28;20448;-62
2021/11/20 03:52:44;;;;;;;33.50;23.98;;;10.90;99.90;;;;;;5074466;28;20524;-60
2021/11/20 03:55:14;;;;;;;36.42;24.17;;;10.90;99.90;;;;;;5073258;28;20028;-60
2021/11/20 03:57:39;;;;;;;31.95;24.05;;;10.80;99.90;;;;;;5074272;28;20039;-59
2021/11/20 04:00:09;;;;;;;36.83;24.98;;;10.80;99.90;;;;;;5074103;28;20083;-58
2021/11/20 04:02:35;;;;;;;31.10;24.42;;;10.60;99.90;;;;;;5074385;28;20032;-60
2021/11/20 04:05:00;;;;;;;32.42;24.92;;;10.70;99.90;;;;;;5074480;28;20039;-61
2021/11/20 04:07:26;;;;;;;35.20;25.60;;;10.60;99.90;;;;;;5074284;28;20400;-60
2021/11/20 04:09:52;;;;;;;36.35;25.45;;;10.70;99.90;;;;;;5073843;28;20036;-60
2021/11/20 04:12:18;;;;;;;34.47;24.80;;;10.60;99.90;;;;;;5073746;28;20044;-60
2021/11/20 04:14:43;;;;;;;34.17;24.30;;;10.60;99.90;;;;;;5074822;28;20024;-59
2021/11/20 04:17:09;;;;;;;37.50;25.27;;;10.70;99.90;;;;;;5074307;28;20579;-60
2021/11/20 04:19:35;;;;;;;36.17;26.13;;;10.60;99.90;;;;;;5073330;28;20036;-59
2021/11/20 04:22:01;;;;;;;38.40;27.02;;;10.60;99.90;;;;;;5062557;28;20558;-60
2021/11/20 04:24:27;;;;;;;35.10;26.20;;;10.70;99.90;;;;;;5053202;28;20032;-61
2021/11/20 04:26:53;;;;;;;38.33;26.25;;;10.70;99.90;;;;;;5053875;28;20037;-61
2021/11/20 04:29:18;;;;;;;35.25;27.55;;;10.60;99.90;;;;;;5054018;28;20120;-60
2021/11/20 04:31:44;;;;;;;37.22;27.13;;;10.70;99.90;;;;;;5054589;28;20028;-61
2021/11/20 04:34:10;;;;;;;41.22;27.52;;;10.50;99.90;;;;;;5052818;28;20037;-62
2021/11/20 04:36:35;;;;;;;41.70;28.25;;;10.50;99.90;;;;;;5053994;28;20422;-60
2021/11/20 04:39:03;;;;;;;37.33;26.75;;;10.60;99.90;;;;;;5053439;28;20564;-61
2021/11/20 04:41:28;;;;;;;41.63;27.98;;;10.60;99.90;;;;;;5053865;28;20167;-61
2021/11/20 04:43:55;;;;;;;39.00;27.58;;;10.70;99.90;;;;;;5053518;28;20079;-60
2021/11/20 04:46:23;;;;;;;35.45;27.05;;;10.70;99.90;;;;;;5053767;28;20029;-60
2021/11/20 04:48:49;;;;;;;40.63;29.23;;;10.70;99.90;;;;;;5070699;28;20051;-59
2021/11/20 04:51:16;;;;;;;36.85;27.38;;;10.80;99.90;;;;;;5073598;28;20033;-62
2021/11/20 04:53:45;;;;;;;38.13;27.83;;;10.80;99.90;;;;;;5073051;28;20119;-62
2021/11/20 04:56:15;;;;;;;36.42;26.60;;;10.70;99.90;;;;;;5074462;28;20028;-61
2021/11/20 04:58:42;;;;;;;38.22;26.55;;;10.80;99.90;;;;;;5073207;28;20017;-60
2021/11/20 05:01:09;;;;;;;35.92;26.38;;;10.80;99.90;;;;;;5072976;28;20537;-60
2021/11/20 05:03:35;;;;;;;34.47;25.80;;;10.70;99.90;;;;;;5073259;28;20122;-60
2021/11/20 05:06:00;;;;;;;41.15;26.40;;;10.80;99.90;;;;;;5073223;28;20039;-59
2021/11/20 05:08:26;;;;;;;35.97;27.08;;;10.70;99.90;;;;;;5072098;28;20464;-62
2021/11/20 05:10:53;;;;;;;34.65;26.70;;;10.70;99.90;;;;;;5072783;28;20032;-60
2021/11/20 05:13:21;;;;;;;39.03;27.55;;;10.80;99.90;;;;;;5055451;28;20040;-61
2021/11/20 05:15:49;;;;;;;39.13;27.42;;;10.70;99.90;;;;;;5072902;28;20086;-61
2021/11/20 05:18:15;;;;;;;38.58;26.55;;;10.60;99.90;;;;;;5073248;28;20508;-61
2021/11/20 05:20:41;;;;;;;37.90;27.38;;;10.70;99.90;;;;;;5072686;28;20089;-60
2021/11/20 05:23:07;;;;;;;37.58;28.35;;;10.70;99.90;;;;;;5052295;28;20040;-61
2021/11/20 05:25:33;;;;;;;43.53;28.42;;;10.70;99.90;;;;;;5052726;28;20104;-61
2021/11/20 05:27:59;;;;;;;40.30;28.08;;;10.70;99.90;;;;;;5053050;28;20397;-60
2021/11/20 05:30:30;;;;;;;43.63;28.40;;;10.70;99.90;;;;;;5052692;28;20029;-63
2021/11/20 05:32:58;;;;;;;40.38;29.10;;;10.70;99.90;;;;;;5051941;28;20025;-61
2021/11/20 05:35:26;;;;;;;41.63;28.15;;;10.70;99.90;;;;;;5052455;28;20039;-61
2021/11/20 05:37:52;;;;;;;38.50;28.25;;;10.70;99.90;;;;;;5052756;28;20032;-60
2021/11/20 05:40:19;;;;;;;48.42;30.58;;;10.70;99.90;;;;;;5052614;28;20102;-61
2021/11/20 05:42:51;;;;;;;45.35;30.10;;;10.60;99.90;;;;;;5052454;28;20032;-57
2021/11/20 05:45:22;;;;;;;40.10;27.75;;;10.70;99.90;;;;;;5052907;28;20029;-61
2021/11/20 05:47:49;;;;;;;43.08;28.13;;;10.60;99.90;;;;;;5061721;28;20040;-60
2021/11/20 05:50:19;;;;;;;40.15;28.33;;;10.70;99.90;;;;;;5072033;28;20146;-60
2021/11/20 05:52:47;;;;;;;42.47;30.58;;;10.80;99.90;;;;;;5072780;28;20089;-61
2021/11/20 05:55:13;;;;;;;43.67;28.77;;;10.80;99.90;;;;;;5072554;28;20029;-62
2021/11/20 05:57:39;;;;;;;40.60;28.55;;;10.90;99.90;;;;;;5072330;28;20045;-60
2021/11/20 06:00:17;;;;;;;40.95;27.95;;;10.90;99.90;;;;;;5072339;28;20028;-62
2021/11/20 06:02:43;;;;;;;38.15;26.65;;;10.80;99.90;;;;;;5071398;28;20033;-61
2021/11/20 06:05:09;;;;;;;39.15;28.25;;;10.90;99.90;;;;;;5073032;28;20045;-61
2021/11/20 06:07:35;;;;;;;38.72;24.90;;;11.00;99.90;;;;;;5070978;28;20059;-61
2021/11/20 06:10:00;;;;;;;37.78;25.73;;;10.90;99.90;;;;;;5072249;28;20361;-59
2021/11/20 06:12:27;;;;;;;41.05;25.20;;;10.90;99.90;;;;;;5072998;28;20496;-59
2021/11/20 06:14:53;;;;;;;34.55;26.25;;;10.90;99.90;;;;;;5073660;28;20036;-60
2021/11/20 06:17:19;;;;;;;44.22;25.73;;;10.90;99.90;;;;;;5073124;28;20117;-60
2021/11/20 06:19:44;;;;;;;36.65;25.45;;;10.90;99.90;;;;;;5072511;28;20056;-57
2021/11/20 06:22:10;;;;;;;36.60;25.13;;;10.90;99.90;;;;;;5060808;28;20481;-62
2021/11/20 06:24:36;;;;;;;36.13;24.63;;;11.00;99.90;;;;;;5051422;28;20373;-61
2021/11/20 06:27:03;;;;;;;34.33;26.73;;;11.00;99.90;;;;;;5051957;28;20128;-61
2021/11/20 06:29:29;;;;;;;38.85;25.90;;;10.90;99.90;;;;;;5051549;28;20041;-61
2021/11/20 06:31:54;;;;;;;37.60;25.00;;;10.80;99.90;;;;;;5045824;28;20025;-62
2021/11/20 06:34:20;;;;;;;34.08;24.77;;;10.90;99.90;;;;;;5032836;28;20367;-61
2021/11/20 06:36:46;;;;;;;35.42;26.13;;;10.90;99.90;;;;;;5035757;28;20109;-61
2021/11/20 06:39:13;;;;;;;32.92;24.90;;;10.80;99.90;;;;;;5035506;28;20037;-63
2021/11/20 06:41:39;;;;;;;32.25;24.02;;;10.90;99.90;;;;;;5035695;28;20034;-63
2021/11/20 06:44:06;;;;;;;36.85;24.48;;;11.00;99.90;;;;;;5035671;28;20041;-60
2021/11/20 06:46:32;;;;;;;36.08;25.20;;;10.90;99.90;;;;;;5036030;28;20568;-62
2021/11/20 06:48:58;;;;;;;35.58;25.13;;;11.00;99.90;;;;;;5072470;28;20107;-62
2021/11/20 06:51:23;;;;;;;34.00;25.52;;;10.90;99.90;;;;;;5076478;28;20074;-61
2021/11/20 06:53:49;;;;;;;34.00;23.35;;;10.90;99.90;;;;;;5075767;28;20407;-61
2021/11/20 06:56:27;;;;;;;34.80;25.33;;;10.90;99.90;;;;;;5075370;28;20060;-63
2021/11/20 07:01:54;;;;;;;33.80;24.10;;;10.80;99.90;;;;;;5032519;28;20037;-60
2021/11/20 07:04:26;;;;;;;35.10;23.88;;;10.90;99.90;;;;;;5066056;28;20404;-61
2021/11/20 07:07:13;;;;;;;31.63;24.35;;;11.00;99.90;;;;;;5076666;28;20028;-60
2021/11/20 07:09:39;;;;;;;31.23;23.92;;;10.90;99.90;;;;;;5074974;28;20032;-61
2021/11/20 07:12:06;;;;;;;31.88;23.45;;;10.90;99.90;;;;;;5075367;28;20473;-61
2021/11/20 07:14:32;;;;;;;31.73;23.48;;;10.90;99.90;;;;;;5075175;28;20028;-61
2021/11/20 07:16:59;;;;;;;35.60;23.10;;;10.90;99.90;;;;;;5074985;28;20063;-61
2021/11/20 07:19:24;;;;;;;30.45;21.58;;;10.90;99.90;;;;;;5073455;28;20032;-61
2021/11/20 07:21:50;;;;;;;31.85;21.55;;;10.90;99.90;;;;;;5065348;28;20059;-62
2021/11/20 07:24:20;;;;;;;30.98;21.33;;;10.90;99.90;;;;;;5055482;28;20082;-61
2021/11/20 07:26:47;;;;;;;33.08;22.52;;;10.90;99.90;;;;;;5054801;28;20025;-61
2021/11/20 07:29:14;;;;;;;31.10;21.77;;;10.80;99.90;;;;;;5055549;28;20037;-61
2021/11/20 07:31:40;;;;;;;30.00;23.30;;;10.90;99.90;;;;;;5042464;28;20411;-61
2021/11/20 07:34:06;;;;;;;29.38;21.17;;;10.80;99.90;;;;;;5036560;28;20034;-62
2021/11/20 07:36:35;;;;;;;36.25;23.48;;;10.80;99.90;;;;;;5036198;28;20029;-62
2021/11/20 07:39:05;;;;;;;30.27;21.65;;;11.00;99.90;;;;;;5035325;28;20064;-61
2021/11/20 07:41:31;;;;;;;30.05;21.02;;;11.00;99.90;;;;;;5033381;28;20032;-61
2021/11/20 07:43:58;;;;;;;30.13;22.40;;;11.00;99.90;;;;;;5033747;28;20392;-61
2021/11/20 07:46:24;;;;;;;30.27;22.27;;;11.00;99.90;;;;;;5034800;28;20045;-61
2021/11/20 07:48:50;;;;;;;32.63;22.75;;;10.90;99.90;;;;;;5067431;28;20399;-61
2021/11/20 07:51:17;;;;;;;33.88;22.80;;;10.80;99.90;;;;;;5074578;28;20052;-61
2021/11/20 07:53:44;;;;;;;29.80;22.27;;;10.80;99.90;;;;;;5074083;28;20369;-61
2021/11/20 07:56:15;;;;;;;34.05;23.23;;;10.70;99.90;;;;;;5074668;28;20484;-61
2021/11/20 07:58:42;;;;;;;32.15;22.10;;;10.90;99.90;;;;;;5075002;28;20082;-62
2021/11/20 08:01:10;;;;;;;34.50;23.02;;;10.80;99.90;;;;;;5058101;28;20032;-62
2021/11/20 08:03:37;;;;;;;35.10;23.45;;;10.70;99.90;;;;;;5046758;28;20040;-61
2021/11/20 08:06:03;;;;;;;30.98;22.60;;;10.80;99.90;;;;;;5054513;28;20040;-61
2021/11/20 08:08:31;;;;;;;34.53;22.55;;;10.80;99.90;;;;;;5054629;28;20110;-62
2021/11/20 08:10:56;;;;;;;32.72;21.95;;;10.80;99.90;;;;;;5053143;28;20041;-61
2021/11/20 08:13:22;;;;;;;30.98;21.45;;;10.80;99.90;;;;;;5053751;28;20032;-62
2021/11/20 08:15:48;;;;;;;31.13;21.98;;;10.90;99.90;;;;;;5053555;28;20041;-61
2021/11/20 08:18:14;;;;;;;34.38;23.27;;;10.90;99.90;;;;;;5053862;28;20040;-62
2021/11/20 08:20:43;;;;;;;30.63;22.00;;;10.80;99.90;;;;;;5054182;28;20033;-60
2021/11/20 08:23:12;;;;;;;30.13;21.60;;;10.80;99.90;;;;;;5035038;28;20099;-62
2021/11/20 08:25:38;;;;;;;31.50;21.70;;;10.80;99.90;;;;;;5052580;28;20032;-62
2021/11/20 08:28:05;;;;;;;29.50;21.50;;;10.90;99.90;;;;;;5049643;28;20516;-64
2021/11/20 08:30:32;;;;;;;35.65;23.13;;;10.80;99.90;;;;;;5032504;28;20041;-62
2021/11/20 08:32:59;;;;;;;28.40;20.05;;;10.70;99.90;;;;;;5033860;28;20037;-61
2021/11/20 08:35:25;;;;;;;30.55;20.35;;;10.90;99.90;;;;;;5034083;28;20028;-61
2021/11/20 08:37:51;;;;;;;29.02;21.10;;;10.90;99.90;;;;;;5032338;28;20063;-61
2021/11/20 08:40:21;;;;;;;27.60;19.92;;;10.90;99.90;;;;;;5033756;28;20116;-62
2021/11/20 08:42:47;;;;;;;26.17;20.20;;;10.90;99.90;;;;;;5032303;28;20033;-62
2021/11/20 08:45:17;;;;;;;26.23;19.23;;;11.00;99.90;;;;;;5033623;28;20034;-62
2021/11/20 08:47:44;;;;;;;28.65;20.65;;;11.00;99.90;;;;;;5049431;28;20043;-63
2021/11/20 08:50:13;;;;;;;29.02;21.10;;;10.90;99.90;;;;;;5072842;28;20040;-62
2021/11/20 08:52:40;;;;;;;30.25;19.80;;;11.00;99.90;;;;;;5047825;28;20064;-62
2021/11/20 08:55:07;;;;;;;26.65;19.58;;;11.00;99.90;;;;;;5032236;28;20041;-62
2021/11/20 08:57:33;;;;;;;30.90;20.88;;;11.00;99.90;;;;;;5039062;28;20488;-62
2021/11/20 08:59:59;;;;;;;30.13;21.10;;;11.00;99.90;;;;;;5047152;28;20519;-62
2021/11/20 09:02:41;;;;;;;30.05;22.15;;;11.10;99.90;;;;;;5047268;28;20132;-60
2021/11/20 09:05:14;;;;;;;30.60;21.60;;;11.10;99.90;;;;;;5043484;28;20103;-60
2021/11/20 09:07:51;;;;;;;29.90;20.95;;;11.10;99.90;;;;;;5044431;28;20132;-62
2021/11/20 09:10:23;;;;;;;31.83;22.52;;;11.00;99.90;;;;;;5041342;28;20445;-61
2021/11/20 09:13:05;;;;;;;36.55;22.40;;;11.00;99.90;;;;;;5046124;28;20028;-62
2021/11/20 09:15:40;;;;;;;34.30;21.92;;;11.00;99.90;;;;;;5042266;28;20029;-62
2021/11/20 09:18:06;;;;;;;29.17;22.13;;;11.00;99.90;;;;;;5042247;28;20057;-63
2021/11/20 09:20:32;;;;;;;32.97;21.63;;;11.00;99.90;;;;;;5041406;28;20036;-61
2021/11/20 09:22:58;;;;;;;26.73;20.15;;;11.00;99.90;;;;;;5043774;28;20389;-62
2021/11/20 09:25:24;;;;;;;28.58;21.08;;;11.00;99.90;;;;;;5041972;28;20052;-61
2021/11/20 09:27:50;;;;;;;28.73;20.98;;;11.00;99.90;;;;;;5042181;28;20068;-61
2021/11/20 09:30:21;;;;;;;38.25;22.30;;;11.00;99.90;;;;;;5040978;28;20029;-61
2021/11/20 09:32:47;;;;;;;31.85;21.65;;;11.00;99.90;;;;;;5043787;28;20036;-60
2021/11/20 09:35:14;;;;;;;25.23;19.75;;;11.20;99.90;;;;;;5039664;28;20029;-60
2021/11/20 09:37:40;;;;;;;28.80;20.83;;;11.20;99.90;;;;;;5042546;28;20388;-61
2021/11/20 09:40:08;;;;;;;28.50;19.08;;;11.10;99.90;;;;;;5041239;28;20030;-61
2021/11/20 09:42:39;;;;;;;30.38;20.40;;;11.00;99.90;;;;;;5041526;28;20040;-61
2021/11/20 09:45:22;;;;;;;27.30;19.17;;;11.10;99.90;;;;;;5041300;28;20057;-61
2021/11/20 09:47:52;;;;;;;29.20;18.80;;;11.10;99.90;;;;;;5040821;28;20114;-62
2021/11/20 09:50:27;;;;;;;28.40;18.67;;;11.10;99.90;;;;;;5048533;28;20025;-67
2021/11/20 09:52:53;;;;;;;27.35;18.67;;;11.20;99.90;;;;;;5038293;28;20029;-61
2021/11/20 09:55:26;;;;;;;23.52;18.20;;;11.10;99.90;;;;;;5043224;28;20108;-63
2021/11/20 09:58:15;;;;;;;26.52;16.75;;;11.10;99.90;;;;;;5043244;28;20116;-61
2021/11/20 10:01:05;;;;;;;23.92;17.35;;;11.10;99.90;;;;;;5049760;28;20025;-60
2021/11/20 10:03:45;;;;;;;21.42;17.42;;;11.00;99.90;;;;;;5041183;28;20396;-63
2021/11/20 10:06:31;;;;;;;22.75;17.63;;;10.90;99.90;;;;;;5040904;28;20026;-63
2021/11/20 10:09:28;;;;;;;25.23;16.35;;;10.90;99.90;;;;;;5039316;28;20071;-64
2021/11/20 10:12:29;;;;;;;22.35;15.98;;;10.90;99.90;;;;;;5042257;28;20037;-62
2021/11/20 10:15:09;;;;;;;21.88;16.80;;;10.90;99.90;;;;;;5016967;28;20488;-62
2021/11/20 10:17:52;;;;;;;20.88;15.55;;;10.90;99.90;;;;;;5044788;28;20037;-63
2021/11/20 10:20:30;;;;;;;23.75;16.40;;;10.90;99.90;;;;;;5051817;28;20428;-62
2021/11/20 10:22:59;;;;;;;25.92;17.23;;;10.90;99.90;;;;;;5045950;28;20461;-62
2021/11/20 10:26:19;;;;;;;24.65;17.23;;;10.90;99.90;;;;;;5043753;28;20075;-62
2021/11/20 10:29:03;;;;;;;23.00;16.92;;;10.90;99.90;;;;;;5042753;28;20390;-61
2021/11/20 10:31:40;;;;;;;22.33;16.95;;;11.00;99.90;;;;;;5044142;28;20377;-61
2021/11/20 10:34:13;;;;;;;20.88;16.25;;;11.00;99.90;;;;;;5056240;28;20043;-62
2021/11/20 10:36:48;;;;;;;21.80;16.52;;;11.00;99.90;;;;;;5056021;28;20032;-60
2021/11/20 10:39:17;;;;;;;;;;;10.90;99.90;;;;;;5056281;28;20029;-62
2021/11/20 10:42:04;;;;;;;16.45;14.05;;;11.00;99.90;;;;;;5051683;28;19905;-60
2021/11/20 10:44:30;;;;;;;20.23;14.73;;;11.10;99.90;;;;;;5035639;28;20029;-63
2021/11/20 10:47:01;;;;;;;20.33;15.15;;;11.10;99.90;;;;;;5038295;28;20067;-61
2021/11/20 10:50:00;;;;;;;17.95;13.55;;;11.10;99.90;;;;;;5075285;28;20075;-60
2021/11/20 10:53:04;;;;;;;18.40;13.77;;;11.20;99.90;;;;;;5073986;28;20040;-62
2021/11/20 10:55:48;;;;;;;18.40;12.85;;;11.10;99.90;;;;;;5071684;28;20112;-64
2021/11/20 10:58:32;;;;;;;16.17;12.52;;;11.00;99.90;;;;;;5038439;28;20026;-61
2021/11/20 11:01:11;;;;;;;18.20;13.18;;;10.90;99.90;;;;;;5034385;28;20106;-60
2021/11/20 11:04:11;;;;;;;15.82;13.02;;;11.00;99.90;;;;;;5040048;28;20048;-62
2021/11/20 11:06:55;;;;;;;19.67;13.85;;;11.10;99.90;;;;;;5018836;28;20051;-62
2021/11/20 11:09:44;;;;;;;17.35;13.48;;;11.10;99.90;;;;;;5035741;28;20029;-61
2021/11/20 11:12:13;;;;;;;16.52;13.82;;;11.10;99.90;;;;;;5034309;28;20056;-61
2021/11/20 11:15:12;;;;;;;16.50;13.68;;;11.10;99.90;;;;;;5034944;28;20029;-60
2021/11/20 11:18:16;;;;;;;18.70;13.23;;;11.10;99.90;;;;;;5034821;28;20095;-60
2021/11/20 11:20:45;;;;;;;16.38;13.35;;;11.10;99.90;;;;;;5034640;28;20021;-61
2021/11/20 11:23:21;;;;;;;17.10;12.93;;;11.10;99.90;;;;;;5053535;28;20033;-61
2021/11/20 11:25:54;;;;;;;17.23;13.77;;;11.10;99.90;;;;;;5055951;28;20025;-61
2021/11/20 11:28:27;;;;;;;16.17;13.73;;;11.30;99.90;;;;;;5056050;28;20041;-61
2021/11/20 11:31:12;;;;;;;20.77;14.00;;;11.30;99.90;;;;;;5054825;28;20044;-63
2021/11/20 11:33:47;;;;;;;15.43;12.52;;;11.30;99.90;;;;;;5034820;28;20033;-61
2021/11/20 11:36:32;;;;;;;15.52;12.57;;;11.40;99.90;;;;;;5034842;28;20048;-62
2021/11/20 11:38:58;;;;;;;17.75;14.02;;;11.40;99.90;;;;;;5034869;28;20025;-61
2021/11/20 11:41:27;;;;;;;17.00;12.18;;;11.30;99.90;;;;;;5034751;28;20496;-61
2021/11/20 11:44:29;;;;;;;15.65;12.38;;;11.40;99.90;;;;;;5034555;28;20030;-64
2021/11/20 11:47:47;;;;;;;15.73;12.95;;;11.40;99.90;;;;;;5035484;28;20091;-63
2021/11/20 11:50:46;;;;;;;16.67;12.65;;;11.40;99.90;;;;;;5040365;28;20041;-63
2021/11/20 11:53:30;;;;;;;17.58;13.40;;;11.40;99.90;;;;;;5074333;28;20025;-60
2021/11/20 11:56:23;;;;;;;16.15;12.77;;;11.50;99.90;;;;;;5074706;28;20064;-61
2021/11/20 11:58:51;;;;;;;15.75;12.32;;;11.60;99.90;;;;;;5074421;28;20024;-61
2021/11/20 12:01:45;;;;;;;18.27;13.30;;;11.60;99.90;;;;;;5073388;28;20085;-61
2021/11/20 12:04:17;;;;;;;14.82;12.73;;;11.50;99.90;;;;;;5045906;28;20086;-60
2021/11/20 12:07:01;;;;;;;15.50;13.57;;;11.50;99.90;;;;;;5074713;28;20025;-61
2021/11/20 12:09:32;;;;;;;14.32;12.07;;;11.50;99.90;;;;;;5074304;28;20035;-61
2021/11/20 12:12:11;;;;;;;16.98;13.48;;;11.50;99.90;;;;;;5074588;28;20032;-61
2021/11/20 12:14:40;;;;;;;18.52;13.25;;;11.50;99.90;;;;;;5074123;28;20025;-61
2021/11/20 12:17:43;;;;;;;17.30;14.23;;;11.50;99.90;;;;;;5073888;28;20036;-62
2021/11/20 12:20:38;;;;;;;15.35;13.75;;;11.40;99.90;;;;;;5073863;28;20055;-63
2021/11/20 12:23:24;;;;;;;;;;;11.40;99.90;;;;;;5050268;28;20071;-60
2021/11/20 12:26:17;;;;;;;18.25;14.27;;;11.40;99.90;;;;;;5053703;28;19912;-61
2021/11/20 12:28:59;;;;;;;16.80;12.68;;;11.50;99.90;;;;;;5053997;28;20234;-62
2021/11/20 12:31:34;;;;;;;16.33;12.23;;;11.40;99.90;;;;;;5053312;28;20361;-62
2021/11/20 12:34:11;;;;;;;;;;;11.40;99.90;;;;;;5053311;28;20040;-61
2021/11/20 12:36:56;;;;;;;14.38;12.73;;;11.40;99.90;;;;;;5041051;28;19916;-61
2021/11/20 12:39:36;;;;;;;15.07;12.52;;;11.30;99.90;;;;;;5045075;28;20021;-61
2021/11/20 12:42:29;;;;;;;13.82;11.85;;;11.40;99.90;;;;;;5033299;28;20041;-60
2021/11/20 12:45:16;;;;;;;14.20;12.15;;;11.40;99.90;;;;;;5033082;28;20017;-60
2021/11/20 12:48:00;;;;;;;16.65;11.77;;;11.40;99.90;;;;;;5054308;28;20033;-63
2021/11/20 12:50:36;;;;;;;15.02;12.05;;;11.40;99.90;;;;;;5033190;28;20026;-62
2021/11/20 12:53:20;;;;;;;15.80;11.23;;;11.40;99.90;;;;;;5033790;28;20037;-60